Gilleleje, Denmark
Current Conditions -  °F | °C
As of 3:20 PM on Thursday 23 Oct 2014 (Local Time) from ESTA Reporting Station
Overcast Overcast  
Wind Chill: 50°   Ceiling: 1700
Heat Index: 50°   Visibility: 6mi
Dew Point: 45°   Wind: 17mph
Humidity: 82%   Direction: 130°SE
Pressure: 30.18"   Gusts: NA
Location:  56.12°N, 12.31°E
Report Text: ESTA 231320Z 13015KT 9999 OVC017 10/07 Q1022
Loading
Personal Weather Stations






























Interactive Weather Map
Tropical Storm Tracking
New forecast layout! Learn more

10-Day Weather Forecast

Advertisements
Track Severe Weather on mobile